Pagrindinis puslapis
METAR-TAF:

METAR-TAF

Oro uostai :

Palestine Municipal Airport

Palestine, Teksasas, Jungtinės Amerikos Valstijos

platuma: 31-46-46N, ilguma: 095-42-22W, Aukštis: 129 m

Dabartinis oras

Ataskaita buvo paskelbta 19 minutes, ne 06:35 UTC
Ramus vėjas
Temperatūra 15°C
Drėgmė 100%
Slėgis 1013 hPa
Matomumas: 16.1 km
Giedras dangus

METAR: KPSN 270635Z AUTO 00000KT 10SM CLR 15/15 A2991 RMK AO2 T01580158

Laikas: 01:54 (06:54 UTC)


TAF: trūkstamas

Orai ataskaitas ir orų prognozės (METAR, TAF).

turimą stotys yra geltonos ir raudonos taškus žemėlapyje.

Perkelti pele per norėdami pamatyti stoties vardą.

Tada spustelėkite, norėdami matyti oro stebėjimo ir prognozės.

Norėdami pakeisti žemėlapį: spustelėkite ant žalios mygtukų su juodo kryžiaus žemyn,; žalią mygtuką su brūkšneliu, jei norite nutolinti; arba žalių rodyklių gretimoms žemėlapius.


METAR-TAF: